City Of Cleveland — WDC2358 — position and weather

sailwx.info

Track history (hours):
 
Tides and Currents Weather Stations Pressure Air Temp Water Temp Dewpoint Dewpoint Depression Visibility Wind Speed Wind Dir Waves Ship Positions

City Of Cleveland

Owner: JANTRAN, INC., ROSEDALE, MS. More information available from US FCC via Universal Licensing System and Coast Guard Vessel Documentation Center.

Last reported at 2015-Jun-27 08:07 UTC. Time now 2015-Jul-29 00:41 UTC.
Position N 30°45' W 091°24'.
Warning: this ship's position is 31 days out of date.

Length 42 m; draft 12.5 m.

Type: Towing. MMSI: 366991810.

Date/timePositionNaut miles runAvg speedWind from/ knotsBaromVisibWave heightAir tempDewpointWater temp
2015-Jun-27 08:07N 30°45' W 091°24'5 3.1
2015-Jun-27 06:33N 30°42' W 091°21'3 3.5
2015-Jun-27 05:33N 30°39' W 091°18'4 3.9
2015-Jun-27 04:33N 30°35' W 091°19'4 4.1
2015-Jun-27 03:33N 30°34' W 091°15'4 3.7
2015-Jun-27 02:33N 30°30' W 091°17'3 2.9
2015-Jun-27 01:33N 30°31' W 091°14'0 0.0
2015-Jun-27 00:33N 30°31' W 091°14'2 1.7
2015-Jun-26 23:33N 30°31' W 091°12'5 4.7
2015-Jun-26 22:33N 30°26' W 091°12'3 2.6
2015-Jun-26 21:33N 30°24' W 091°13'0 0.0
2015-Jun-26 20:33N 30°24' W 091°13'0 0.0
2015-Jun-26 19:33N 30°24' W 091°13'0 0.0
2015-Jun-26 18:33N 30°24' W 091°13'2 2.4
2015-Jun-26 17:33N 30°21' W 091°14'4 4.1
2015-Jun-26 16:33N 30°21' W 091°10'4 3.1
2015-Jun-26 15:25N 30°19' W 091°13'4 1.9
2015-Jun-26 13:13N 30°17' W 091°09'4 3.3
2015-Jun-26 12:03N 30°13' W 091°10'15 2.8
2015-Jun-26 06:33N 30°05' W 090°55'8 2.1
2015-Jun-26 02:33N 30°01' W 090°46'5 4.8
2015-Jun-26 01:31N 30°02' W 090°41'4 3.5
2015-Jun-26 00:17N 30°03' W 090°36'32 1.3
2015-Jun-24 23:10N 29°56' W 089°59'0 0.0
2015-Jun-24 21:12N 29°56' W 089°59'0 0.0
2015-Jun-24 18:17N 29°56' W 089°59'0 0.0
2015-Jun-24 17:28N 29°56' W 089°59'0 0.0
2015-Jun-24 16:32N 29°56' W 089°59'0 0.0
2015-Jun-24 15:16N 29°56' W 089°59'0 0.2
2015-Jun-24 14:32N 29°56' W 089°59'0 0.0
2015-Jun-24 13:17N 29°56' W 089°59'0 0.0
2015-Jun-24 12:33N 29°56' W 089°59'0 0.0
2015-Jun-24 11:32N 29°56' W 089°59'0 0.0
2015-Jun-24 10:31N 29°56' W 089°59'0 0.0
2015-Jun-24 09:28N 29°56' W 089°59'0 0.0
2015-Jun-24 08:30N 29°56' W 089°59'0 0.0
2015-Jun-24 07:33N 29°56' W 089°59'0 0.0
2015-Jun-24 06:33N 29°56' W 089°59'0 0.0
2015-Jun-24 05:33N 29°56' W 089°59'0 0.0
2015-Jun-24 04:32N 29°56' W 089°59'0 0.0
2015-Jun-24 03:29N 29°56' W 089°59'0 0.0
2015-Jun-24 02:33N 29°56' W 089°59'6 5.1
2015-Jun-24 01:28N 29°55' W 090°05'4 2.1
2015-Jun-23 23:23N 29°57' W 090°10'52 1.4
2015-Jun-22 10:24N 30°15' W 091°07'7 8.0
2015-Jun-22 09:33N 30°18' W 091°14'4 4.0
2015-Jun-22 08:33N 30°21' W 091°11'4 3.6
2015-Jun-22 07:33N 30°24' W 091°12'0 0.0
2015-Jun-22 06:14N 30°24' W 091°12'0 0.0
2015-Jun-22 05:33N 30°24' W 091°12'0 0.0
2015-Jun-22 04:33N 30°24' W 091°12'2 2.0
2015-Jun-22 03:33N 30°26' W 091°12'5 5.2
2015-Jun-22 02:33N 30°31' W 091°13'2 1.6
2015-Jun-22 01:33N 30°32' W 091°15'5 5.4
2015-Jun-22 00:33N 30°37' W 091°18'7 7.2
2015-Jun-21 23:33N 30°43' W 091°21'  
Track history (hours):
 
Tides and Currents Weather Stations Pressure Air Temp Water Temp Dewpoint Dewpoint Depression Visibility Wind Speed Wind Dir Waves Ship Positions

City Of Cleveland

Owner: JANTRAN, INC., ROSEDALE, MS. More information available from US FCC via Universal Licensing System and Coast Guard Vessel Documentation Center.

Last reported at 2015-Jun-27 08:07 UTC. Time now 2015-Jul-29 00:41 UTC.
Position N 30°45' W 091°24'.
Warning: this ship's position is 31 days out of date.

Length 42 m; draft 12.5 m.

Type: Towing. MMSI: 366991810.

Date/timePositionNaut miles runAvg speedWind from/ knotsBaromVisibWave heightAir tempDewpointWater temp
2015-Jun-27 08:07N 30°45' W 091°24'5 3.1
2015-Jun-27 06:33N 30°42' W 091°21'3 3.5
2015-Jun-27 05:33N 30°39' W 091°18'4 3.9
2015-Jun-27 04:33N 30°35' W 091°19'4 4.1
2015-Jun-27 03:33N 30°34' W 091°15'4 3.7
2015-Jun-27 02:33N 30°30' W 091°17'3 2.9
2015-Jun-27 01:33N 30°31' W 091°14'0 0.0
2015-Jun-27 00:33N 30°31' W 091°14'2 1.7
2015-Jun-26 23:33N 30°31' W 091°12'5 4.7
2015-Jun-26 22:33N 30°26' W 091°12'3 2.6
2015-Jun-26 21:33N 30°24' W 091°13'0 0.0
2015-Jun-26 20:33N 30°24' W 091°13'0 0.0
2015-Jun-26 19:33N 30°24' W 091°13'0 0.0
2015-Jun-26 18:33N 30°24' W 091°13'2 2.4
2015-Jun-26 17:33N 30°21' W 091°14'4 4.1
2015-Jun-26 16:33N 30°21' W 091°10'4 3.1
2015-Jun-26 15:25N 30°19' W 091°13'4 1.9
2015-Jun-26 13:13N 30°17' W 091°09'4 3.3
2015-Jun-26 12:03N 30°13' W 091°10'15 2.8
2015-Jun-26 06:33N 30°05' W 090°55'8 2.1
2015-Jun-26 02:33N 30°01' W 090°46'5 4.8
2015-Jun-26 01:31N 30°02' W 090°41'4 3.5
2015-Jun-26 00:17N 30°03' W 090°36'32 1.3
2015-Jun-24 23:10N 29°56' W 089°59'0 0.0
2015-Jun-24 21:12N 29°56' W 089°59'0 0.0
2015-Jun-24 18:17N 29°56' W 089°59'0 0.0
2015-Jun-24 17:28N 29°56' W 089°59'0 0.0
2015-Jun-24 16:32N 29°56' W 089°59'0 0.0
2015-Jun-24 15:16N 29°56' W 089°59'0 0.2
2015-Jun-24 14:32N 29°56' W 089°59'0 0.0
2015-Jun-24 13:17N 29°56' W 089°59'0 0.0
2015-Jun-24 12:33N 29°56' W 089°59'0 0.0
2015-Jun-24 11:32N 29°56' W 089°59'0 0.0
2015-Jun-24 10:31N 29°56' W 089°59'0 0.0
2015-Jun-24 09:28N 29°56' W 089°59'0 0.0
2015-Jun-24 08:30N 29°56' W 089°59'0 0.0
2015-Jun-24 07:33N 29°56' W 089°59'0 0.0
2015-Jun-24 06:33N 29°56' W 089°59'0 0.0
2015-Jun-24 05:33N 29°56' W 089°59'0 0.0
2015-Jun-24 04:32N 29°56' W 089°59'0 0.0
2015-Jun-24 03:29N 29°56' W 089°59'0 0.0
2015-Jun-24 02:33N 29°56' W 089°59'6 5.1
2015-Jun-24 01:28N 29°55' W 090°05'4 2.1
2015-Jun-23 23:23N 29°57' W 090°10'52 1.4
2015-Jun-22 10:24N 30°15' W 091°07'7 8.0
2015-Jun-22 09:33N 30°18' W 091°14'4 4.0
2015-Jun-22 08:33N 30°21' W 091°11'4 3.6
2015-Jun-22 07:33N 30°24' W 091°12'0 0.0
2015-Jun-22 06:14N 30°24' W 091°12'0 0.0
2015-Jun-22 05:33N 30°24' W 091°12'0 0.0
2015-Jun-22 04:33N 30°24' W 091°12'2 2.0
2015-Jun-22 03:33N 30°26' W 091°12'5 5.2
2015-Jun-22 02:33N 30°31' W 091°13'2 1.6
2015-Jun-22 01:33N 30°32' W 091°15'5 5.4
2015-Jun-22 00:33N 30°37' W 091°18'7 7.2
2015-Jun-21 23:33N 30°43' W 091°21'  

Dump ship's entire track history